< < Back
Terminal Aerodrome Forecast


Current Version              Previous Versions:   1  2  3  4  5  6  7  8  9  

Terminal Aerodrome Forecast

191
FTUS42 KCAE 261500 AAB
TAFAGS
TAF AMD
KAGS 261500Z 2615/2712 29010G20KT P6SM SCT020 BKN035
     FM261700 29018G28KT P6SM SCT020 OVC035
     FM270200 29014G25KT P6SM SCT150
     FM270900 29008G14KT P6SM SCT150=



Latest METAR

575
SAUS70 KWBC 261600 RRB
MTRAGS
METAR KAGS 261553Z 30018G23KT 10SM FEW034 12/03 A2972 RMK AO2 SLP064
T01220033


USA.gov is the U.S. government's official web portal to all federal, state and local government web resources and services.